createdAt,value
2023-03-31T00:03:48.432Z,100.00
2023-03-31T00:08:52.595Z,100.00
2023-03-31T00:13:56.308Z,100.00
2023-03-31T00:19:02.194Z,100.00
2023-03-31T00:24:08.311Z,100.00
2023-03-31T00:29:14.280Z,100.00
2023-03-31T00:34:17.245Z,100.00
2023-03-31T00:39:20.147Z,100.00
2023-03-31T00:44:25.006Z,100.00
2023-03-31T00:49:41.411Z,100.00
2023-03-31T00:54:48.072Z,100.00
2023-03-31T00:59:54.285Z,100.00
2023-03-31T01:05:02.315Z,100.00
2023-03-31T01:10:06.724Z,100.00
2023-03-31T01:15:10.822Z,100.00
2023-03-31T01:20:36.930Z,100.00
2023-03-31T01:26:18.544Z,100.00
2023-03-31T01:31:33.710Z,100.00
2023-03-31T01:36:55.380Z,100.00
2023-03-31T01:42:22.660Z,100.00
2023-03-31T01:47:40.549Z,100.00
2023-03-31T01:53:10.550Z,100.00
2023-03-31T01:58:21.393Z,100.00
2023-03-31T02:03:29.526Z,100.00
2023-03-31T02:08:49.987Z,100.00
2023-03-31T02:13:55.738Z,100.00
2023-03-31T02:19:05.948Z,100.00
2023-03-31T02:24:13.189Z,100.00
2023-03-31T02:29:16.242Z,100.00
2023-03-31T02:34:19.244Z,100.00
2023-03-31T02:39:28.257Z,100.00
2023-03-31T02:44:31.617Z,100.00
2023-03-31T02:49:36.671Z,100.00
2023-03-31T02:54:57.602Z,100.00
2023-03-31T03:00:16.850Z,100.00
2023-03-31T03:05:36.076Z,100.00
2023-03-31T03:11:02.671Z,100.00
2023-03-31T03:16:27.495Z,100.00
2023-03-31T03:21:31.688Z,100.00
2023-03-31T03:26:35.415Z,100.00
2023-03-31T03:31:38.519Z,100.00
2023-03-31T03:36:41.538Z,100.00
2023-03-31T03:41:44.630Z,100.00
2023-03-31T03:46:47.795Z,100.00
2023-03-31T03:51:50.949Z,100.00
2023-03-31T03:56:54.078Z,100.00
2023-03-31T04:01:57.107Z,100.00
2023-03-31T04:07:00.164Z,100.00
2023-03-31T04:12:03.185Z,100.00
2023-03-31T04:17:06.281Z,100.00
2023-03-31T04:22:11.903Z,100.00
2023-03-31T04:27:17.530Z,100.00
2023-03-31T04:32:24.510Z,100.00
2023-03-31T04:37:28.376Z,100.00
2023-03-31T04:42:31.343Z,100.00
2023-03-31T04:47:34.521Z,100.00
2023-03-31T04:52:38.900Z,100.00
2023-03-31T04:57:42.315Z,100.00
2023-03-31T05:02:45.394Z,100.00
2023-03-31T05:07:48.448Z,100.00
2023-03-31T05:12:51.546Z,100.00
2023-03-31T05:17:54.806Z,100.00
2023-03-31T05:22:57.982Z,100.00
2023-03-31T05:28:02.071Z,100.00
2023-03-31T05:33:05.308Z,100.00
2023-03-31T05:38:08.324Z,100.00
2023-03-31T05:43:11.440Z,100.00
2023-03-31T05:48:14.434Z,100.00
2023-03-31T05:53:17.539Z,100.00
2023-03-31T05:58:20.652Z,100.00
2023-03-31T06:03:23.691Z,100.00
2023-03-31T06:08:27.275Z,100.00
2023-03-31T06:13:30.382Z,100.00
2023-03-31T06:18:36.028Z,100.00
2023-03-31T06:23:39.170Z,100.00
2023-03-31T06:28:43.300Z,100.00
2023-03-31T06:33:47.593Z,100.00
2023-03-31T06:38:51.252Z,100.00
2023-03-31T06:43:54.364Z,100.00
2023-03-31T06:48:57.474Z,100.00
2023-03-31T06:54:00.590Z,100.00
2023-03-31T06:59:03.593Z,100.00
2023-03-31T07:04:06.691Z,100.00
2023-03-31T07:09:09.705Z,100.00
2023-03-31T07:14:12.809Z,100.00
2023-03-31T07:19:15.816Z,100.00
2023-03-31T07:24:19.027Z,100.00
2023-03-31T07:29:22.033Z,100.00
2023-03-31T07:34:25.351Z,100.00
2023-03-31T07:39:28.470Z,100.00
2023-03-31T07:44:34.532Z,100.00
2023-03-31T07:49:37.748Z,100.00
2023-03-31T07:54:40.960Z,100.00
2023-03-31T07:59:44.182Z,100.00
2023-03-31T08:04:47.703Z,100.00
2023-03-31T08:09:50.696Z,100.00
2023-03-31T08:14:53.801Z,100.00
2023-03-31T08:19:57.340Z,100.00
2023-03-31T08:25:01.455Z,100.00
2023-03-31T08:30:06.800Z,100.00
2023-03-31T08:35:10.443Z,100.00
2023-03-31T08:40:22.382Z,100.00
2023-03-31T08:45:36.483Z,100.00
2023-03-31T08:50:50.074Z,100.00
2023-03-31T08:55:55.749Z,100.00
2023-03-31T09:01:47.884Z,100.00
2023-03-31T09:07:23.366Z,100.00
2023-03-31T09:12:40.141Z,100.00
2023-03-31T09:17:48.398Z,100.00
2023-03-31T09:23:00.856Z,100.00
2023-03-31T09:28:07.248Z,100.00
2023-03-31T09:33:34.120Z,100.00
2023-03-31T09:38:38.552Z,100.00
2023-03-31T09:43:43.192Z,100.00
2023-03-31T09:49:00.053Z,100.00
2023-03-31T09:54:15.964Z,100.00
2023-03-31T09:59:30.412Z,100.00
2023-03-31T10:04:35.779Z,100.00
2023-03-31T10:09:39.806Z,100.00
2023-03-31T10:14:48.660Z,100.00
2023-03-31T10:19:53.178Z,100.00
2023-03-31T10:25:11.045Z,100.00
2023-03-31T10:30:21.262Z,100.00
2023-03-31T10:35:32.703Z,100.00
2023-03-31T10:40:36.925Z,100.00
2023-03-31T10:45:50.425Z,100.00
2023-03-31T10:50:54.950Z,100.00
2023-03-31T10:56:10.142Z,100.00
2023-03-31T11:01:35.175Z,100.00
2023-03-31T11:07:07.668Z,100.00
2023-03-31T11:12:21.527Z,100.00
2023-03-31T11:17:27.349Z,100.00
2023-03-31T11:22:55.391Z,100.00
2023-03-31T11:28:27.461Z,100.00
2023-03-31T11:33:48.915Z,100.00
2023-03-31T11:39:10.867Z,99.98
2023-03-31T11:44:17.049Z,99.96
2023-03-31T11:49:38.934Z,99.91
2023-03-31T11:55:11.195Z,99.17
2023-03-31T12:00:25.422Z,98.00
2023-03-31T12:05:32.074Z,97.03
2023-03-31T12:10:41.812Z,95.10
2023-03-31T12:15:53.259Z,93.48
2023-03-31T12:21:00.398Z,92.75
2023-03-31T12:26:15.105Z,93.14
2023-03-31T12:31:24.081Z,93.21
2023-03-31T12:36:53.491Z,93.87
2023-03-31T12:42:32.456Z,94.61
2023-03-31T12:48:00.764Z,94.43
2023-03-31T12:53:30.563Z,93.99
2023-03-31T12:58:39.787Z,93.22
2023-03-31T13:04:04.744Z,91.30
2023-03-31T13:09:27.714Z,90.71
2023-03-31T13:14:40.447Z,89.55
2023-03-31T13:19:43.450Z,87.73
2023-03-31T13:24:46.770Z,86.31
2023-03-31T13:29:50.047Z,85.66
2023-03-31T13:35:14.161Z,85.33
2023-03-31T13:40:38.822Z,83.60
2023-03-31T13:46:04.235Z,83.27
2023-03-31T13:51:18.993Z,83.89
2023-03-31T13:56:58.308Z,84.09
2023-03-31T14:02:24.429Z,84.60
2023-03-31T14:07:40.998Z,83.74
2023-03-31T14:12:44.362Z,83.86
2023-03-31T14:17:48.113Z,83.87
2023-03-31T14:23:04.113Z,83.35
2023-03-31T14:28:44.985Z,82.88
2023-03-31T14:34:16.464Z,82.87
2023-03-31T14:39:23.121Z,83.35
2023-03-31T14:44:27.148Z,82.36
2023-03-31T14:49:38.285Z,83.47
2023-03-31T14:54:42.962Z,83.95
2023-03-31T14:59:50.410Z,84.85
2023-03-31T15:04:54.512Z,86.03
2023-03-31T15:09:58.004Z,87.15
2023-03-31T15:15:06.256Z,88.19
2023-03-31T15:20:35.074Z,89.46
2023-03-31T15:25:42.772Z,88.32
2023-03-31T15:30:52.239Z,87.37
2023-03-31T15:36:04.346Z,87.42
2023-03-31T15:41:13.675Z,86.98
2023-03-31T15:46:24.509Z,87.44
2023-03-31T15:51:37.536Z,87.84
2023-03-31T15:56:45.643Z,87.84
2023-03-31T16:01:50.205Z,88.14
2023-03-31T16:07:09.120Z,88.25
2023-03-31T16:12:43.782Z,88.74
2023-03-31T16:17:54.898Z,89.70
2023-03-31T16:22:59.865Z,90.58
2023-03-31T16:28:04.350Z,91.68
2023-03-31T16:33:12.969Z,92.75
2023-03-31T16:38:16.855Z,93.44
2023-03-31T16:43:33.961Z,94.76
2023-03-31T16:48:37.022Z,96.83
2023-03-31T16:53:42.293Z,97.41
2023-03-31T16:58:47.658Z,97.80
2023-03-31T17:03:58.494Z,98.03
2023-03-31T17:09:04.771Z,97.92
2023-03-31T17:14:10.678Z,97.85
2023-03-31T17:19:14.908Z,97.78
2023-03-31T17:24:19.766Z,97.83
2023-03-31T17:29:23.696Z,97.65
2023-03-31T17:34:26.791Z,97.67
2023-03-31T17:39:30.214Z,98.46
2023-03-31T17:44:33.229Z,99.04
2023-03-31T17:49:36.225Z,98.52
2023-03-31T17:54:40.030Z,98.61
2023-03-31T17:59:43.240Z,99.37
2023-03-31T18:04:46.347Z,99.16
2023-03-31T18:09:50.128Z,99.28
2023-03-31T18:14:53.297Z,99.60
2023-03-31T18:19:56.616Z,100.00
2023-03-31T18:24:59.622Z,99.96
2023-03-31T18:30:03.640Z,99.92
2023-03-31T18:35:07.259Z,100.00
2023-03-31T18:40:10.939Z,99.99
2023-03-31T18:45:13.924Z,99.99
2023-03-31T18:50:17.634Z,100.00
2023-03-31T18:55:21.180Z,100.00
2023-03-31T19:00:24.567Z,100.00
2023-03-31T19:05:28.911Z,100.00
2023-03-31T19:10:32.785Z,100.00
2023-03-31T19:15:37.578Z,100.00
2023-03-31T19:20:41.095Z,100.00
2023-03-31T19:25:44.721Z,100.00
2023-03-31T19:30:52.579Z,100.00
2023-03-31T19:35:56.057Z,100.00
2023-03-31T19:41:00.314Z,100.00
2023-03-31T19:46:03.662Z,100.00
2023-03-31T19:51:08.679Z,100.00
2023-03-31T19:56:14.937Z,100.00
2023-03-31T20:01:21.919Z,100.00
2023-03-31T20:06:28.295Z,100.00
2023-03-31T20:11:32.207Z,100.00
2023-03-31T20:16:35.301Z,100.00
2023-03-31T20:21:39.803Z,100.00
2023-03-31T20:26:43.694Z,100.00
2023-03-31T20:31:47.079Z,100.00
2023-03-31T20:36:52.205Z,100.00
2023-03-31T20:41:55.428Z,100.00
2023-03-31T20:46:59.289Z,100.00
2023-03-31T20:52:02.750Z,100.00
2023-03-31T20:57:07.460Z,100.00
2023-03-31T21:02:13.119Z,100.00
2023-03-31T21:07:16.176Z,100.00
2023-03-31T21:12:19.726Z,100.00
2023-03-31T21:17:22.805Z,100.00
2023-03-31T21:22:27.656Z,100.00
2023-03-31T21:27:30.969Z,100.00
2023-03-31T21:32:34.111Z,100.00
2023-03-31T21:37:37.478Z,100.00
2023-03-31T21:42:40.815Z,100.00
2023-03-31T21:47:43.851Z,100.00
2023-03-31T21:52:46.824Z,100.00
2023-03-31T21:57:49.907Z,100.00
2023-03-31T22:02:58.469Z,100.00
2023-03-31T22:08:14.170Z,100.00
2023-03-31T22:13:17.584Z,100.00
2023-03-31T22:18:22.230Z,100.00
2023-03-31T22:23:26.278Z,100.00
2023-03-31T22:28:29.274Z,100.00
2023-03-31T22:33:32.485Z,100.00
2023-03-31T22:38:35.791Z,100.00
2023-03-31T22:43:38.895Z,100.00
2023-03-31T22:48:42.217Z,100.00
2023-03-31T22:53:53.403Z,100.00
2023-03-31T22:58:57.708Z,100.00
2023-03-31T23:04:01.311Z,100.00
2023-03-31T23:09:04.240Z,100.00
2023-03-31T23:14:07.284Z,100.00
2023-03-31T23:19:10.287Z,100.00
2023-03-31T23:24:13.519Z,100.00
2023-03-31T23:29:16.519Z,100.00
2023-03-31T23:34:19.723Z,100.00
2023-03-31T23:39:22.823Z,100.00
2023-03-31T23:44:26.241Z,100.00
2023-03-31T23:49:29.247Z,100.00
2023-03-31T23:54:32.870Z,100.00
2023-03-31T23:59:36.558Z,100.00
